Time;durP1;ratioP1;P1;durP2;ratioP2;P2;SDS_P1;SDS_P2;PMS_P1;PMS_P2;Temp;Humidity;BMP_temperature;BMP_pressure;BME280_temperature;BME280_humidity;BME280_pressure;Samples;Min_cycle;Max_cycle;Signal;HPM_P1;HPM_P2
2021/03/29 00:00:30;;;;;;;4.38;2.30;;;;;;;7.85;46.37;97129.47;5071505;28;20060;-50
2021/03/29 00:02:58;;;;;;;3.90;2.30;;;;;;;7.82;46.42;97128.13;5070640;28;20052;-51
2021/03/29 00:05:28;;;;;;;5.00;2.60;;;;;;;7.82;46.72;97128.13;5071504;28;20050;-51
2021/03/29 00:08:12;;;;;;;5.68;3.08;;;;;;;7.90;46.54;97135.59;5071111;28;20048;-53
2021/03/29 00:10:41;;;;;;;4.40;2.50;;;;;;;7.82;47.05;97135.41;5053472;28;20067;-53
2021/03/29 00:13:09;;;;;;;5.43;2.50;;;;;;;7.59;47.56;97136.97;5071170;28;20056;-53
2021/03/29 00:15:42;;;;;;;4.45;2.35;;;;;;;7.72;47.87;97134.41;5070371;28;20048;-51
2021/03/29 00:18:10;;;;;;;4.43;2.60;;;;;;;7.55;48.10;97131.34;5070960;28;20335;-52
2021/03/29 00:20:40;;;;;;;4.95;2.47;;;;;;;7.40;48.32;97121.50;5071261;28;20048;-55
2021/03/29 00:23:08;;;;;;;4.20;2.20;;;;;;;7.22;49.02;97128.41;5071602;28;20101;-53
2021/03/29 00:25:36;;;;;;;6.47;2.85;;;;;;;7.42;48.59;97130.13;5070341;28;20051;-55
2021/03/29 00:28:04;;;;;;;5.28;2.47;;;;;;;7.08;49.92;97119.34;5070961;28;20079;-51
2021/03/29 00:30:37;;;;;;;5.55;2.53;;;;;;;7.06;50.08;97121.53;5070885;28;20064;-54
2021/03/29 00:33:05;;;;;;;5.65;2.58;;;;;;;6.87;50.79;97113.31;5070213;28;20056;-51
2021/03/29 00:35:35;;;;;;;5.22;2.33;;;;;;;7.11;50.72;97115.28;5053431;28;20074;-54
2021/03/29 00:38:04;;;;;;;7.10;2.70;;;;;;;7.24;49.65;97120.81;5070348;28;20052;-51
2021/03/29 00:40:31;;;;;;;5.47;2.70;;;;;;;7.01;50.50;97125.03;5072040;28;20060;-54
2021/03/29 00:43:20;;;;;;;4.18;2.75;;;;;;;6.91;50.86;97121.63;5075345;28;20052;-55
2021/03/29 00:45:48;;;;;;;4.95;2.65;;;;;;;7.09;50.44;97126.34;5074567;28;20051;-51
2021/03/29 00:48:19;;;;;;;7.47;2.92;;;;;;;7.12;50.34;97120.41;5074906;28;20056;-53
2021/03/29 00:50:50;;;;;;;6.18;2.70;;;;;;;6.96;51.13;97137.75;5075220;28;20381;-52
2021/03/29 00:53:21;;;;;;;5.30;2.50;;;;;;;6.83;51.20;97132.97;5073862;28;20060;-53
2021/03/29 00:55:49;;;;;;;4.28;2.72;;;;;;;6.64;52.35;97140.88;5073159;28;20064;-52
2021/03/29 00:58:21;;;;;;;5.03;3.00;;;;;;;6.50;53.12;97136.13;5074630;28;20105;-49
2021/03/29 01:00:53;;;;;;;4.68;2.38;;;;;;;6.36;53.53;97134.28;5074962;28;20052;-49
2021/03/29 01:03:26;;;;;;;5.80;3.28;;;;;;;6.44;53.43;97139.09;5074148;28;20057;-50
2021/03/29 01:06:04;;;;;;;7.00;3.05;;;;;;;6.52;53.11;97133.13;5057073;28;20040;-55
2021/03/29 01:08:34;;;;;;;5.63;3.05;;;;;;;6.55;53.02;97132.59;5073631;28;20482;-53
2021/03/29 01:11:10;;;;;;;4.95;2.88;;;;;;;6.64;52.65;97135.50;5063358;28;20111;-50
2021/03/29 01:13:45;;;;;;;4.55;2.85;;;;;;;6.35;53.98;97133.47;5054086;28;20513;-49
2021/03/29 01:16:15;;;;;;;5.43;2.85;;;;;;;6.52;53.35;97136.63;5054269;28;20133;-50
2021/03/29 01:18:44;;;;;;;7.03;2.83;;;;;;;6.50;53.21;97140.66;5060910;28;20435;-49
2021/03/29 01:21:48;;;;;;;4.45;2.90;;;;;;;6.37;53.77;97130.50;5074172;28;20066;-53
2021/03/29 01:24:19;;;;;;;;;;;;;;;6.48;53.81;97140.94;5074995;28;20045;-54
2021/03/29 01:26:47;;;;;;;7.43;3.17;;;;;;;6.35;53.81;97141.53;5074089;28;19980;-51
2021/03/29 01:29:16;;;;;;;8.90;3.42;;;;;;;6.09;55.11;97138.16;5073193;28;20052;-52
2021/03/29 01:31:43;;;;;;;8.82;2.90;;;;;;;5.97;55.95;97137.63;5074557;28;20056;-52
2021/03/29 01:34:13;;;;;;;6.20;3.20;;;;;;;6.02;55.47;97129.56;5074503;28;20452;-52
2021/03/29 01:36:42;;;;;;;10.93;3.40;;;;;;;6.12;55.27;97137.59;5073216;28;20052;-54
2021/03/29 01:39:11;;;;;;;6.63;2.97;;;;;;;6.32;54.26;97140.22;5073080;28;20048;-54
2021/03/29 01:41:39;;;;;;;8.85;3.50;;;;;;;6.53;53.34;97134.72;5073970;28;20048;-54
2021/03/29 01:44:06;;;;;;;8.93;3.45;;;;;;;6.17;54.61;97137.56;5074015;28;20049;-52
2021/03/29 01:46:33;;;;;;;9.07;3.00;;;;;;;6.05;55.21;97135.22;5072682;28;20127;-50
2021/03/29 01:49:01;;;;;;;6.70;2.83;;;;;;;6.15;54.45;97134.38;5073787;28;20461;-53
2021/03/29 01:51:28;;;;;;;7.38;3.00;;;;;;;5.94;55.40;97132.81;5073906;28;20059;-50
2021/03/29 01:53:56;;;;;;;8.70;3.28;;;;;;;5.66;56.10;97136.88;5072230;28;20076;-53
2021/03/29 01:56:22;;;;;;;7.68;3.95;;;;;;;5.72;56.18;97141.97;5073764;28;20053;-52
2021/03/29 01:58:49;;;;;;;5.78;3.00;;;;;;;5.83;55.78;97138.19;5073561;28;20044;-54
2021/03/29 02:01:16;;;;;;;8.23;3.30;;;;;;;5.71;56.37;97147.59;5073741;28;20048;-53
2021/03/29 02:03:44;;;;;;;6.10;2.65;;;;;;;5.79;55.69;97134.44;5072673;28;20048;-53
2021/03/29 02:06:11;;;;;;;7.40;3.28;;;;;;;5.94;55.20;97133.59;5073673;28;20056;-51
2021/03/29 02:08:41;;;;;;;6.30;3.22;;;;;;;5.78;55.70;97140.06;5072319;28;20129;-52
2021/03/29 02:11:08;;;;;;;8.43;3.35;;;;;;;5.89;55.22;97138.19;5073863;28;20053;-54
2021/03/29 02:13:41;;;;;;;6.35;3.03;;;;;;;6.02;54.61;97132.25;5073654;28;20123;-53
2021/03/29 02:16:12;;;;;;;5.78;3.20;;;;;;;5.86;55.27;97136.84;5072910;28;20102;-51
2021/03/29 02:18:51;;;;;;;6.03;2.70;;;;;;;5.75;55.22;97141.44;5073421;28;20045;-53
2021/03/29 02:21:23;;;;;;;4.88;2.72;;;;;;;5.64;55.95;97137.13;5073323;28;20063;-54
2021/03/29 02:23:55;;;;;;;6.65;3.00;;;;;;;5.60;56.08;97133.38;5072483;28;20052;-50
2021/03/29 02:26:25;;;;;;;6.15;2.90;;;;;;;5.65;55.62;97138.75;5072085;28;20059;-51
2021/03/29 02:28:52;;;;;;;10.75;3.67;;;;;;;5.70;55.68;97138.75;5073367;28;20052;-51
2021/03/29 02:31:20;;;;;;;6.20;2.92;;;;;;;5.66;55.73;97143.06;5073157;28;20118;-49
2021/03/29 02:33:49;;;;;;;8.02;3.45;;;;;;;5.59;56.12;97142.53;5072040;28;20062;-52
2021/03/29 02:36:17;;;;;;;5.60;3.10;;;;;;;5.56;56.64;97137.69;5073243;28;20121;-49
2021/03/29 02:38:43;;;;;;;8.30;3.33;;;;;;;5.48;57.07;97141.72;5072277;28;20053;-52
2021/03/29 02:41:10;;;;;;;5.65;2.90;;;;;;;5.62;56.86;97134.75;5055458;28;20052;-50
2021/03/29 02:43:37;;;;;;;7.45;3.40;;;;;;;5.89;55.24;97138.97;5073259;28;20052;-55
2021/03/29 02:46:06;;;;;;;8.32;3.10;;;;;;;5.67;56.10;97135.78;5071786;28;20049;-54
2021/03/29 02:48:36;;;;;;;8.68;3.45;;;;;;;5.70;56.18;97140.63;5072882;28;20048;-51
2021/03/29 02:51:06;;;;;;;7.72;3.30;;;;;;;5.61;56.38;97140.38;5072789;28;20056;-54
2021/03/29 02:53:35;;;;;;;5.55;2.85;;;;;;;5.61;56.78;97135.78;5072855;28;20056;-52
2021/03/29 02:56:20;;;;;;;7.93;3.20;;;;;;;5.55;56.30;97142.25;5072353;28;20118;-50
2021/03/29 02:58:56;;;;;;;7.28;3.10;;;;;;;5.77;55.52;97144.63;5073790;28;20045;-53
2021/03/29 03:01:25;;;;;;;5.63;2.90;;;;;;;5.59;56.10;97147.91;5073835;28;20121;-51
2021/03/29 03:03:53;;;;;;;5.05;2.75;;;;;;;5.83;55.69;97148.13;5071095;28;20051;-54
2021/03/29 03:06:26;;;;;;;5.22;3.03;;;;;;;5.95;54.68;97145.19;5072372;28;20056;-53
2021/03/29 03:08:52;;;;;;;6.43;3.05;;;;;;;5.95;54.67;97139.81;5071235;28;20075;-51
2021/03/29 03:11:20;;;;;;;7.85;3.35;;;;;;;5.57;55.99;97145.47;5072951;28;20071;-53
2021/03/29 03:13:48;;;;;;;7.32;2.95;;;;;;;5.46;56.34;97143.88;5066921;28;20049;-54
2021/03/29 03:16:15;;;;;;;5.78;2.92;;;;;;;5.47;56.14;97147.38;5047752;28;20056;-54
2021/03/29 03:18:42;;;;;;;7.10;3.47;;;;;;;5.70;55.34;97154.84;5072227;28;20546;-53
2021/03/29 03:21:13;;;;;;;6.95;3.67;;;;;;;5.70;55.11;97152.16;5072041;28;20063;-52
2021/03/29 03:23:50;;;;;;;9.13;3.13;;;;;;;5.32;56.82;97150.84;5071007;28;20064;-52
2021/03/29 03:26:16;;;;;;;9.40;3.40;;;;;;;5.20;57.57;97158.34;5072362;28;20098;-51
2021/03/29 03:28:43;;;;;;;5.95;3.22;;;;;;;5.24;57.70;97156.75;5072236;28;20061;-51
2021/03/29 03:31:09;;;;;;;9.10;3.03;;;;;;;5.52;56.11;97163.44;5072017;28;20060;-51
2021/03/29 03:33:36;;;;;;;10.00;3.70;;;;;;;5.56;56.05;97162.66;5053172;28;20044;-53
2021/03/29 03:36:03;;;;;;;16.60;4.50;;;;;;;5.70;55.60;97160.22;5072053;28;20049;-51
2021/03/29 03:38:34;;;;;;;20.10;5.18;;;;;;;5.48;56.07;97173.13;5069630;28;20410;-53
2021/03/29 03:41:05;;;;;;;13.07;4.22;;;;;;;5.32;56.63;97159.69;5054289;28;20052;-51
2021/03/29 03:43:44;;;;;;;8.45;3.42;;;;;;;5.30;56.54;97159.19;5071923;28;20074;-51
2021/03/29 03:46:25;;;;;;;8.60;3.42;;;;;;;5.31;56.69;97162.66;5070723;28;20410;-51
2021/03/29 03:48:55;;;;;;;11.85;3.38;;;;;;;5.57;55.87;97166.16;5071484;28;20139;-49
2021/03/29 03:51:25;;;;;;;14.88;3.85;;;;;;;5.65;55.25;97170.16;5071667;28;20057;-51
2021/03/29 03:53:53;;;;;;;14.85;3.58;;;;;;;5.49;56.02;97164.00;5071045;28;20135;-54
2021/03/29 03:56:21;;;;;;;10.65;3.53;;;;;;;5.32;56.48;97165.06;5071498;28;20059;-52
2021/03/29 03:58:48;;;;;;;8.95;3.50;;;;;;;5.32;56.42;97161.56;5071322;28;20409;-53
2021/03/29 04:01:16;;;;;;;10.35;4.35;;;;;;;5.47;55.86;97166.16;5071403;28;20052;-52
2021/03/29 04:03:42;;;;;;;17.67;4.90;;;;;;;5.43;56.09;97167.75;5070587;28;20067;-49
2021/03/29 04:06:09;;;;;;;21.08;4.97;;;;;;;5.47;56.11;97176.88;5071544;28;20040;-51
2021/03/29 04:08:40;;;;;;;16.33;4.85;;;;;;;5.59;55.71;97166.69;5052686;28;20066;-50
2021/03/29 04:11:08;;;;;;;7.35;3.42;;;;;;;5.47;55.62;97169.63;5072214;28;20068;-52
2021/03/29 04:13:35;;;;;;;10.18;3.65;;;;;;;5.55;55.45;97173.66;5053911;28;20131;-49
2021/03/29 04:16:05;;;;;;;8.40;3.60;;;;;;;5.41;56.09;97180.66;5070743;28;20090;-50
2021/03/29 04:18:33;;;;;;;8.02;3.50;;;;;;;5.44;55.86;97180.91;5071532;28;20422;-51
2021/03/29 04:21:00;;;;;;;13.25;3.97;;;;;;;5.45;56.26;97179.81;5072120;28;20052;-54
2021/03/29 04:23:29;;;;;;;10.15;3.35;;;;;;;5.20;57.31;97180.63;5071762;28;20502;-51
2021/03/29 04:25:56;;;;;;;12.52;3.70;;;;;;;5.22;56.98;97178.47;5070486;28;20057;-50
2021/03/29 04:28:23;;;;;;;6.72;3.50;;;;;;;5.49;56.23;97180.09;5053484;28;20056;-50
2021/03/29 04:30:51;;;;;;;19.13;4.53;;;;;;;5.42;56.49;97185.72;5071279;28;20055;-54
2021/03/29 04:33:19;;;;;;;9.30;3.80;;;;;;;5.44;56.47;97182.78;5071444;28;20097;-50
2021/03/29 04:35:48;;;;;;;14.65;4.55;;;;;;;5.56;56.17;97189.50;5070354;28;20049;-52
2021/03/29 04:38:14;;;;;;;11.57;3.75;;;;;;;5.51;55.95;97189.50;5070000;28;20063;-51
2021/03/29 04:40:41;;;;;;;6.88;2.97;;;;;;;5.44;55.78;97191.66;5071057;28;20127;-50
2021/03/29 04:43:09;;;;;;;8.23;3.47;;;;;;;5.58;55.63;97189.22;5071186;28;20056;-54
2021/03/29 04:45:36;;;;;;;10.48;3.97;;;;;;;5.53;55.53;97198.09;5071505;28;20561;-49
2021/03/29 04:48:03;;;;;;;13.95;3.78;;;;;;;5.37;56.32;97196.47;5070450;28;20052;-50
2021/03/29 04:50:30;;;;;;;15.38;3.88;;;;;;;5.52;55.72;97201.84;5071732;28;20642;-51
2021/03/29 04:52:56;;;;;;;9.02;3.28;;;;;;;5.41;55.29;97202.13;5071495;28;20063;-48
2021/03/29 04:55:23;;;;;;;10.70;4.20;;;;;;;5.29;56.96;97205.03;5070156;28;20048;-51
2021/03/29 04:57:50;;;;;;;12.35;4.00;;;;;;;5.29;56.60;97202.38;5070724;28;20064;-54
2021/03/29 05:00:16;;;;;;;16.98;5.00;;;;;;;5.50;55.47;97203.19;5070924;28;20056;-52
2021/03/29 05:02:43;;;;;;;16.55;4.30;;;;;;;5.51;55.41;97221.72;5070575;28;20383;-54
2021/03/29 05:05:10;;;;;;;17.38;4.15;;;;;;;5.30;56.38;97207.47;5071032;28;20421;-53
2021/03/29 05:07:37;;;;;;;9.27;3.38;;;;;;;5.22;56.17;97210.69;5070120;28;20076;-50
2021/03/29 05:10:09;;;;;;;7.30;3.10;;;;;;;5.50;54.21;97213.94;5071081;28;20434;-51
2021/03/29 05:12:36;;;;;;;12.73;3.75;;;;;;;5.49;54.46;97212.31;5071108;28;20064;-53
2021/03/29 05:15:04;;;;;;;10.57;3.50;;;;;;;5.63;53.81;97216.88;5069783;28;20067;-51
2021/03/29 05:17:31;;;;;;;13.15;3.53;;;;;;;5.60;53.90;97214.72;5070567;28;20073;-52
2021/03/29 05:19:57;;;;;;;8.57;3.13;;;;;;;5.81;52.54;97210.16;5070594;28;20512;-52
2021/03/29 05:22:24;;;;;;;10.70;3.25;;;;;;;5.80;53.03;97213.91;5070801;28;20421;-52
2021/03/29 05:24:51;;;;;;;12.48;3.60;;;;;;;5.79;52.93;97217.69;5069728;28;20052;-52
2021/03/29 05:27:17;;;;;;;14.15;3.50;;;;;;;5.92;52.65;97220.91;5070781;28;20524;-50
2021/03/29 05:29:45;;;;;;;11.13;3.47;;;;;;;5.86;52.71;97228.97;5044494;28;20067;-54
2021/03/29 05:32:21;;;;;;;7.97;3.28;;;;;;;5.55;53.25;97232.72;5056629;28;20501;-53
2021/03/29 05:34:49;;;;;;;10.88;3.70;;;;;;;5.79;53.63;97230.31;5073690;28;20063;-51
2021/03/29 05:37:17;;;;;;;9.73;3.20;;;;;;;5.78;52.17;97234.84;5071302;28;20071;-52
2021/03/29 05:39:48;;;;;;;7.00;2.38;;;;;;;5.89;52.39;97227.63;5059247;28;20053;-54
2021/03/29 05:42:17;;;;;;;9.77;2.97;;;;;;;6.15;50.59;97238.38;5054476;28;20510;-49
2021/03/29 05:44:44;;;;;;;8.52;2.88;;;;;;;6.19;49.96;97232.16;5054254;28;20059;-56
2021/03/29 05:47:12;;;;;;;5.97;3.00;;;;;;;6.05;50.35;97231.13;5073464;28;20052;-54
2021/03/29 05:49:38;;;;;;;6.80;3.20;;;;;;;6.04;50.50;97229.50;5053877;28;20053;-51
2021/03/29 05:52:05;;;;;;;10.18;2.88;;;;;;;5.98;50.24;97235.94;5073357;28;20059;-54
2021/03/29 05:54:32;;;;;;;8.75;3.45;;;;;;;6.04;50.25;97240.25;5072472;28;20059;-55
2021/03/29 05:56:59;;;;;;;7.70;3.13;;;;;;;6.07;49.97;97239.72;5073748;28;20045;-55
2021/03/29 05:59:27;;;;;;;8.50;3.13;;;;;;;6.36;49.31;97247.19;5056742;28;20498;-52
2021/03/29 06:01:56;;;;;;;11.32;3.20;;;;;;;6.44;49.01;97250.13;5073510;28;20146;-50
2021/03/29 06:04:46;;;;;;;8.73;3.40;;;;;;;6.50;48.67;97254.41;5074417;28;20154;-50
2021/03/29 06:07:24;;;;;;;8.07;3.20;;;;;;;6.68;48.08;97255.69;5063801;28;20041;-53
2021/03/29 06:09:54;;;;;;;7.20;3.40;;;;;;;6.71;48.08;97254.34;5053962;28;20599;-52
2021/03/29 06:12:22;;;;;;;7.95;3.13;;;;;;;6.68;47.98;97247.63;5036107;28;20148;-54
2021/03/29 06:15:01;;;;;;;10.98;3.65;;;;;;;6.93;48.59;97254.78;5059282;28;20106;-51
2021/03/29 06:17:27;;;;;;;6.10;3.03;;;;;;;6.81;47.16;97253.50;5053883;28;20126;-51
2021/03/29 06:19:58;;;;;;;6.90;2.85;;;;;;;6.97;46.61;97250.47;5053841;28;20502;-54
2021/03/29 06:22:30;;;;;;;7.93;3.17;;;;;;;6.86;46.55;97250.78;5043893;28;20048;-52
2021/03/29 06:25:17;;;;;;;8.88;4.18;;;;;;;6.95;46.20;97246.44;5042474;28;20080;-54
2021/03/29 06:27:48;;;;;;;8.27;3.70;;;;;;;6.99;46.46;97252.88;5044611;28;20122;-51
2021/03/29 06:30:31;;;;;;;8.57;3.38;;;;;;;7.07;45.82;97256.88;5066955;28;20073;-54
2021/03/29 06:33:13;;;;;;;6.63;3.58;;;;;;;7.22;45.00;97264.88;5073833;28;20060;-54
2021/03/29 06:35:50;;;;;;;9.23;3.25;;;;;;;7.29;45.26;97259.19;5070458;28;20099;-52
2021/03/29 06:38:28;;;;;;;9.55;3.30;;;;;;;7.49;44.46;97269.81;5072436;28;20056;-52
2021/03/29 06:40:59;;;;;;;5.95;3.17;;;;;;;7.47;43.86;97267.44;5072330;28;20045;-52
2021/03/29 06:43:30;;;;;;;7.53;2.45;;;;;;;7.67;43.36;97271.03;5053688;28;20057;-52
2021/03/29 06:46:18;;;;;;;5.68;2.60;;;;;;;7.77;42.56;97267.47;5053970;28;20049;-53
2021/03/29 06:48:44;;;;;;;8.55;2.83;;;;;;;7.92;42.35;97267.34;5072684;28;20063;-54
2021/03/29 06:51:20;;;;;;;4.32;2.67;;;;;;;8.03;41.87;97274.28;5067496;28;20063;-55
2021/03/29 06:53:51;;;;;;;8.40;2.30;;;;;;;8.10;41.20;97269.38;5060295;28;20600;-54
2021/03/29 06:56:31;;;;;;;6.75;3.05;;;;;;;8.30;40.63;97279.16;5056121;28;20181;-51
2021/03/29 06:59:26;;;;;;;6.60;2.85;;;;;;;8.48;41.50;97276.84;5051700;28;20499;-53
2021/03/29 07:01:55;;;;;;;7.15;2.60;;;;;;;8.61;40.57;97282.38;5053437;28;20053;-55
2021/03/29 07:04:25;;;;;;;7.78;2.30;;;;;;;8.76;40.25;97278.69;5056267;28;20044;-54
2021/03/29 07:06:53;;;;;;;6.03;2.33;;;;;;;8.81;39.88;97280.56;5065127;28;20048;-54
2021/03/29 07:09:20;;;;;;;6.25;2.50;;;;;;;8.84;39.14;97282.69;5059397;28;20422;-47
2021/03/29 07:11:48;;;;;;;9.30;2.50;;;;;;;8.86;38.87;97285.88;5052803;28;20079;-48
2021/03/29 07:14:23;;;;;;;6.78;2.47;;;;;;;8.89;38.77;97286.09;5065508;28;20115;-50
2021/03/29 07:16:53;;;;;;;8.02;3.03;;;;;;;9.02;38.83;97295.41;5064608;28;20045;-50
2021/03/29 07:19:22;;;;;;;5.88;2.10;;;;;;;9.21;38.35;97297.34;5052404;28;20118;-53
2021/03/29 07:21:48;;;;;;;7.63;3.60;;;;;;;9.21;38.25;97302.75;5034814;28;20119;-48
2021/03/29 07:24:15;;;;;;;7.63;2.50;;;;;;;9.24;38.56;97291.38;5052239;28;20064;-50
2021/03/29 07:26:46;;;;;;;6.47;2.17;;;;;;;9.38;38.48;97302.25;5072275;28;20051;-47
2021/03/29 07:29:26;;;;;;;5.80;2.47;;;;;;;9.43;38.26;97305.69;5071893;28;20048;-51
2021/03/29 07:32:01;;;;;;;7.28;2.35;;;;;;;9.46;37.91;97294.31;5095753;22;20048;-52
2021/03/29 07:34:48;;;;;;;6.35;2.20;;;;;;;9.53;37.98;97302.84;5074307;28;20106;-50
2021/03/29 07:37:25;;;;;;;6.57;2.40;;;;;;;9.83;37.91;97307.00;5071065;28;20053;-51
2021/03/29 07:39:51;;;;;;;5.85;2.38;;;;;;;9.90;37.61;97314.75;5070843;28;20056;-50
2021/03/29 07:42:24;;;;;;;11.73;2.60;;;;;;;9.93;37.35;97314.16;5072174;28;20056;-49
2021/03/29 07:45:01;;;;;;;5.32;2.17;;;;;;;9.99;37.23;97312.19;5072250;28;20059;-53
2021/03/29 07:47:54;;;;;;;10.32;2.17;;;;;;;10.07;37.21;97319.63;5070952;28;20098;-51
2021/03/29 07:50:24;;;;;;;7.13;2.35;;;;;;;10.13;36.80;97310.31;5070626;28;20078;-49
2021/03/29 07:52:55;;;;;;;5.38;2.70;;;;;;;10.29;36.75;97310.91;5053310;28;20053;-51
2021/03/29 07:55:26;;;;;;;7.18;2.05;;;;;;;10.33;36.85;97303.00;5070730;28;20063;-49
2021/03/29 07:57:53;;;;;;;3.63;2.00;;;;;;;10.41;36.88;97305.84;5052394;28;20452;-53
2021/03/29 08:00:23;;;;;;;6.13;1.85;;;;;;;10.37;37.36;97307.53;5070880;28;20497;-53
2021/03/29 08:02:50;;;;;;;5.25;2.63;;;;;;;10.43;37.32;97298.25;5070824;28;20056;-53
2021/03/29 08:05:36;;;;;;;7.95;2.03;;;;;;;10.60;37.42;97300.38;5090975;28;20382;-49
2021/03/29 08:08:26;;;;;;;7.13;1.90;;;;;;;10.70;37.18;97302.09;5080554;28;20040;-50
2021/03/29 08:10:56;;;;;;;7.20;2.10;;;;;;;10.97;37.02;97301.28;5056502;28;20053;-49
2021/03/29 08:13:45;;;;;;;5.32;2.00;;;;;;;10.70;36.91;97305.59;5071326;28;20459;-50
2021/03/29 08:16:21;;;;;;;8.00;2.13;;;;;;;10.82;37.29;97299.69;5070763;28;20052;-52
2021/03/29 08:19:08;;;;;;;6.22;2.10;;;;;;;10.93;37.07;97298.38;5070130;28;20052;-53
2021/03/29 08:21:57;;;;;;;5.05;2.15;;;;;;;11.18;36.91;97301.69;5070831;28;20052;-53
2021/03/29 08:24:29;;;;;;;4.38;1.90;;;;;;;11.07;36.78;97303.78;5069530;28;20040;-50
2021/03/29 08:27:01;;;;;;;6.57;2.25;;;;;;;11.15;36.94;97297.69;5070462;28;20053;-54
2021/03/29 08:29:42;;;;;;;5.00;2.22;;;;;;;11.38;36.49;97314.00;5036906;28;20053;-50
2021/03/29 08:32:10;;;;;;;4.03;2.00;;;;;;;11.39;36.47;97307.47;5070940;28;20391;-53
2021/03/29 08:35:02;;;;;;;5.43;2.25;;;;;;;11.51;36.10;97298.84;5070843;28;20053;-50
2021/03/29 08:37:40;;;;;;;5.20;2.08;;;;;;;11.33;36.15;97297.84;5070030;28;20513;-49
2021/03/29 08:40:22;;;;;;;4.95;2.20;;;;;;;11.43;36.01;97290.28;5052881;28;20131;-52
2021/03/29 08:42:51;;;;;;;4.68;1.85;;;;;;;11.54;35.54;97293.59;5070520;28;20413;-52
2021/03/29 08:45:21;;;;;;;3.85;2.08;;;;;;;11.56;35.58;97301.41;5070574;28;20109;-49
2021/03/29 08:47:49;;;;;;;4.32;2.25;;;;;;;11.69;35.22;97298.66;5069770;28;20086;-52
2021/03/29 08:50:19;;;;;;;4.88;2.10;;;;;;;11.85;35.12;97303.78;5070438;28;20426;-51
2021/03/29 08:52:49;;;;;;;4.75;2.00;;;;;;;11.78;34.60;97306.88;5070361;28;20074;-50
2021/03/29 08:55:25;;;;;;;4.20;1.85;;;;;;;11.80;34.17;97306.59;5070529;28;20064;-51
2021/03/29 08:57:56;;;;;;;4.47;1.88;;;;;;;11.85;33.62;97301.06;5069941;28;20045;-51
2021/03/29 09:00:32;;;;;;;4.60;1.90;;;;;;;11.99;33.83;97309.16;5052590;28;20048;-49
2021/03/29 09:02:59;;;;;;;4.75;2.08;;;;;;;12.00;33.88;97303.44;5073624;28;20060;-51
2021/03/29 09:05:28;;;;;;;5.95;1.73;;;;;;;12.26;33.75;97305.53;5074554;28;20063;-51
2021/03/29 09:07:55;;;;;;;6.47;2.00;;;;;;;12.18;33.93;97303.53;5074485;28;20072;-53
2021/03/29 09:10:21;;;;;;;4.15;2.00;;;;;;;12.42;33.45;97298.59;5074918;28;20071;-50
2021/03/29 09:13:21;;;;;;;6.88;2.03;;;;;;;12.74;32.94;97297.50;5056439;28;20158;-55
2021/03/29 09:15:49;;;;;;;5.72;2.05;;;;;;;12.72;33.01;97312.50;5020835;28;20086;-56
2021/03/29 09:18:19;;;;;;;4.30;1.90;;;;;;;12.62;32.97;97313.56;5073311;28;20501;-56
2021/03/29 09:20:48;;;;;;;6.38;2.33;;;;;;;12.57;33.11;97305.53;5073992;28;20143;-49
2021/03/29 09:23:19;;;;;;;5.05;1.98;;;;;;;12.61;33.18;97307.34;5074087;28;20049;-51
2021/03/29 09:25:48;;;;;;;5.93;2.25;;;;;;;12.99;32.88;97306.84;5074118;28;20500;-50
2021/03/29 09:31:15;;;;;;;5.78;1.98;;;;;;;13.18;32.50;97309.31;5074529;28;20081;-50
2021/03/29 09:33:43;;;;;;;8.55;2.58;;;;;;;13.16;32.08;97308.84;5073837;28;20083;-52
2021/03/29 09:36:17;;;;;;;6.85;1.75;;;;;;;13.28;32.03;97311.78;5074042;28;20416;-50
2021/03/29 09:38:48;;;;;;;7.68;2.63;;;;;;;13.54;31.71;97317.25;5056209;28;20481;-50
2021/03/29 09:41:22;;;;;;;5.65;2.13;;;;;;;13.71;31.47;97315.69;5074067;28;20433;-50
2021/03/29 09:43:54;;;;;;;6.85;1.90;;;;;;;13.85;31.09;97326.44;5074141;28;20169;-51
2021/03/29 09:46:31;;;;;;;4.15;2.05;;;;;;;13.69;31.13;97321.47;5073549;28;20114;-50
2021/03/29 09:49:16;;;;;;;5.00;1.88;;;;;;;13.87;30.57;97321.47;5073118;28;20101;-53
2021/03/29 09:51:45;;;;;;;5.90;2.10;;;;;;;13.86;30.66;97326.13;5056342;28;20064;-52
2021/03/29 09:54:33;;;;;;;5.93;1.90;;;;;;;14.11;30.52;97318.28;5073791;28;20059;-52
2021/03/29 09:57:14;;;;;;;4.95;2.00;;;;;;;14.58;29.94;97313.75;5072729;28;20049;-50
2021/03/29 09:59:44;;;;;;;5.18;1.77;;;;;;;14.56;29.44;97332.34;5073403;28;20706;-52
2021/03/29 10:02:14;;;;;;;7.30;2.28;;;;;;;14.81;29.06;97318.97;5055759;28;20511;-48
2021/03/29 10:04:42;;;;;;;6.35;2.30;;;;;;;14.55;29.57;97317.13;5073418;28;20496;-52
2021/03/29 10:07:17;;;;;;;5.70;2.35;;;;;;;15.01;29.07;97314.72;5072187;28;20049;-54
2021/03/29 10:09:46;;;;;;;6.28;2.25;;;;;;;15.13;29.13;97315.63;5073195;28;20526;-53
2021/03/29 10:12:24;;;;;;;5.13;2.10;;;;;;;15.30;28.61;97325.66;5055160;28;20080;-49
2021/03/29 10:15:12;;;;;;;5.05;2.20;;;;;;;15.26;28.58;97318.47;5072686;28;20045;-53
2021/03/29 10:17:39;;;;;;;4.97;1.60;;;;;;;15.30;28.99;97316.69;5072312;28;20493;-48
2021/03/29 10:20:11;;;;;;;6.60;2.10;;;;;;;15.26;28.71;97323.91;5072921;28;20072;-53
2021/03/29 10:22:38;;;;;;;3.47;1.95;;;;;;;15.09;28.63;97313.91;5073208;28;20109;-51
2021/03/29 10:25:19;;;;;;;4.82;2.15;;;;;;;14.86;28.96;97310.63;5072856;28;20075;-52
2021/03/29 10:27:54;;;;;;;4.53;2.20;;;;;;;14.92;29.50;97306.59;5072020;28;20484;-50
2021/03/29 10:30:20;;;;;;;3.92;1.60;;;;;;;14.98;28.92;97318.09;5055032;28;20071;-50
2021/03/29 10:32:58;;;;;;;6.65;2.33;;;;;;;15.02;29.00;97311.69;5038161;28;20044;-51
2021/03/29 10:35:27;;;;;;;6.45;2.20;;;;;;;15.12;29.29;97299.63;5072765;28;20158;-53
2021/03/29 10:37:55;;;;;;;6.68;1.90;;;;;;;15.13;29.00;97307.47;5071661;28;20059;-54
2021/03/29 10:40:22;;;;;;;6.00;1.80;;;;;;;15.23;29.37;97303.56;5072472;28;20072;-50
2021/03/29 10:42:48;;;;;;;3.97;1.88;;;;;;;15.11;28.06;97301.56;5072724;28;20527;-51
2021/03/29 10:45:16;;;;;;;5.97;1.92;;;;;;;15.13;28.85;97299.28;5072290;28;20052;-53
2021/03/29 10:47:44;;;;;;;4.18;1.98;;;;;;;15.36;26.54;97297.06;5053729;28;20123;-52
2021/03/29 10:50:17;;;;;;;4.00;1.67;;;;;;;15.46;27.20;97298.63;5054652;28;20048;-50
2021/03/29 10:52:44;;;;;;;4.32;2.05;;;;;;;15.70;25.87;97292.56;5072314;28;20460;-53
2021/03/29 10:55:13;;;;;;;3.67;1.85;;;;;;;15.59;25.96;97294.03;5072316;28;20048;-50
2021/03/29 10:57:40;;;;;;;5.72;1.92;;;;;;;15.82;26.76;97291.81;5071679;28;20144;-49
2021/03/29 11:00:08;;;;;;;4.47;2.08;;;;;;;15.86;26.46;97293.56;5072246;28;20090;-53
2021/03/29 11:02:36;;;;;;;4.80;1.83;;;;;;;15.49;26.86;97294.44;5072131;28;20055;-50
2021/03/29 11:05:07;;;;;;;11.75;2.30;;;;;;;15.68;26.69;97297.53;5072696;28;20135;-52
2021/03/29 11:07:34;;;;;;;6.68;2.28;;;;;;;15.63;26.91;97282.16;5072186;28;20056;-53
2021/03/29 11:10:00;;;;;;;5.53;2.30;;;;;;;15.68;26.96;97281.19;5054681;28;20117;-51
2021/03/29 11:12:27;;;;;;;4.68;1.95;;;;;;;15.87;27.37;97286.19;5072586;28;20103;-50
2021/03/29 11:14:53;;;;;;;6.00;2.28;;;;;;;16.02;26.64;97280.13;5072151;28;20072;-54
2021/03/29 11:17:22;;;;;;;6.93;2.30;;;;;;;16.43;27.13;97272.97;5070890;28;20052;-52
2021/03/29 11:19:49;;;;;;;6.93;2.33;;;;;;;17.27;25.65;97264.44;5071739;28;20140;-54
2021/03/29 11:22:15;;;;;;;5.25;1.85;;;;;;;17.50;25.26;97271.00;5071342;28;20044;-49
2021/03/29 11:24:42;;;;;;;6.85;2.63;;;;;;;17.36;24.55;97262.38;5053016;28;20052;-49
2021/03/29 11:27:08;;;;;;;4.82;2.00;;;;;;;17.13;25.48;97272.19;5070656;28;20076;-51
2021/03/29 11:29:35;;;;;;;5.28;1.92;;;;;;;17.25;24.93;97269.44;5071321;28;20056;-54
2021/03/29 11:32:02;;;;;;;5.60;2.50;;;;;;;17.63;23.51;97268.25;5053762;28;20052;-53
2021/03/29 11:34:28;;;;;;;5.22;1.65;;;;;;;17.73;22.25;97259.56;5071521;28;20060;-51
2021/03/29 11:36:55;;;;;;;3.50;1.65;;;;;;;17.74;22.20;97258.41;5053402;28;20040;-55
2021/03/29 11:39:21;;;;;;;3.92;1.88;;;;;;;17.86;21.81;97260.34;5071154;28;20106;-54
2021/03/29 11:41:48;;;;;;;3.00;1.75;;;;;;;18.37;21.11;97261.41;5071791;28;20053;-53
2021/03/29 11:44:14;;;;;;;5.90;1.60;;;;;;;18.01;20.89;97262.38;5071616;28;20087;-51
2021/03/29 11:46:41;;;;;;;4.63;1.80;;;;;;;18.53;20.23;97261.44;5070876;28;20732;-50
2021/03/29 11:49:07;;;;;;;26.60;3.40;;;;;;;18.74;20.36;97261.22;5053170;28;20114;-52
2021/03/29 11:51:34;;;;;;;10.35;2.10;;;;;;;19.06;19.72;97261.22;5071581;28;20072;-53
2021/03/29 11:54:01;;;;;;;7.50;1.70;;;;;;;19.06;20.17;97255.72;5071492;28;20179;-49
2021/03/29 11:56:28;;;;;;;9.35;2.00;;;;;;;18.96;20.73;97259.00;5071071;28;20422;-51